モンテレー の空港の天気 - METARとTAF

ヘネラル・マリアノ・エソコベド国際空港 ( MMMY / MTY ) - メキシコ ヌエボ・レオン州モンテレー
飛行場実況気象(Metar)
観測時間02/05 14:40 CST (02/05 20:40 UTC)
風向・風速南東 4m/s
視程10km以上
天気現象
なし
気温27℃
湿度24%
気圧1019hPa
METARMMMY 052040Z 14007KT 12SM SKC 27/05 A3010 RMK SLP/// 5//// 9//
過去の天気等 Google飛行場航空写真 Wunderground天気予報

過去48時間のMETAR

飛行場予報(TAF)
発表時間: 2/05 10:27 CST (2/05 16:27 UTC)
予報対象時間: 5日12時 CST ~ 6日12時 CST
風向・風速西北西 3m/s
視程10km以上
なし
5日14時 CST から
風向・風速東南東 4m/s
視程10km以上
なし
5日20時 CST から
風向・風速東南東 3m/s
視程10km以上
なし
6日4時 CST から
風向・風速東南東 3m/s
視程4830m
天気現象もや
全天の8割程度の雲 雲底高度 370m
6日4時 CST ~ 6日8時 CST に一時的に
視程1610m
天気現象もや
全天の8割程度の雲 雲底高度 240m
6日9時 CST から
風向・風速東南東 4m/s
視程10km以上
なし
TAF MMMY 051627Z 0518/0618 30005KT P6SM SKC TX25/0521Z TN12/0612Z
FM052000 12008KT P6SM SKC
FM060200 12005KT P6SM SKC
FM061000 12005KT 3SM BR BKN012
TEMPO 0610/0614 1SM BR BKN008
FM061500 12008KT P6SM SKC